Time;durP1;ratioP1;P1;durP2;ratioP2;P2;SDS_P1;SDS_P2;PMS_P1;PMS_P2;Temp;Humidity;BMP_temperature;BMP_pressure;BME280_temperature;BME280_humidity;BME280_pressure;Samples;Min_cycle;Max_cycle;Signal;HPM_P1;HPM_P2
2023/09/25 00:04:33;;;;;;;1.30;1.00;;;22.60;61.60;;;;;;216238;1300;24320;-61
2023/09/25 00:09:36;;;;;;;1.40;1.30;;;22.60;61.70;;;;;;216388;1298;22698;-61
2023/09/25 00:14:39;;;;;;;1.40;1.30;;;22.60;61.60;;;;;;216460;1295;22697;-61
2023/09/25 00:19:42;;;;;;;2.20;1.30;;;22.60;61.70;;;;;;216543;1297;25623;-61
2023/09/25 00:24:46;;;;;;;2.40;1.60;;;22.50;61.70;;;;;;216108;1301;22560;-62
2023/09/25 00:29:49;;;;;;;2.20;1.70;;;22.50;61.60;;;;;;216146;1295;24405;-61
2023/09/25 00:34:51;;;;;;;1.10;1.00;;;22.60;61.60;;;;;;216124;1295;24262;-62
2023/09/25 00:39:55;;;;;;;1.60;1.40;;;22.50;61.60;;;;;;216384;1298;22574;-60
2023/09/25 00:44:59;;;;;;;1.20;1.10;;;22.60;62.40;;;;;;216540;1292;25247;-60
2023/09/25 00:50:04;;;;;;;1.40;1.30;;;22.50;61.60;;;;;;216072;1296;23937;-64
2023/09/25 00:55:07;;;;;;;1.80;1.50;;;22.50;61.80;;;;;;216527;1298;25046;-63
2023/09/25 01:00:11;;;;;;;1.70;1.00;;;22.50;62.20;;;;;;216582;1295;24551;-61
2023/09/25 01:05:14;;;;;;;1.30;1.20;;;22.50;62.10;;;;;;216463;1298;22555;-62
2023/09/25 01:10:19;;;;;;;1.70;1.60;;;22.50;61.90;;;;;;216428;1295;22682;-62
2023/09/25 01:15:22;;;;;;;1.20;1.00;;;22.50;61.80;;;;;;216664;1295;22852;-61
2023/09/25 01:20:25;;;;;;;1.30;1.20;;;22.50;61.90;;;;;;216255;1296;22575;-60
2023/09/25 01:25:28;;;;;;;1.60;1.10;;;22.50;61.90;;;;;;216201;1295;22580;-63
2023/09/25 01:30:32;;;;;;;1.70;1.40;;;22.50;61.70;;;;;;216194;1291;22594;-62
2023/09/25 01:35:35;;;;;;;1.10;1.00;;;22.50;62.00;;;;;;216572;1295;22562;-62
2023/09/25 01:40:38;;;;;;;1.40;1.00;;;22.50;62.00;;;;;;216536;1298;22562;-61
2023/09/25 01:45:41;;;;;;;1.10;1.00;;;22.50;61.90;;;;;;216233;1301;24318;-63
2023/09/25 01:50:43;;;;;;;1.30;1.20;;;22.50;62.00;;;;;;216175;1298;25414;-62
2023/09/25 01:55:46;;;;;;;1.10;1.10;;;22.50;61.90;;;;;;216111;1297;22681;-62
2023/09/25 02:00:49;;;;;;;1.40;1.20;;;22.50;62.10;;;;;;216522;1298;22695;-62
2023/09/25 02:05:56;;;;;;;1.00;1.00;;;22.50;62.10;;;;;;216420;1297;22702;-61
2023/09/25 02:11:00;;;;;;;2.60;1.30;;;22.50;62.20;;;;;;216469;1298;22553;-61
2023/09/25 02:16:03;;;;;;;1.20;1.10;;;22.50;62.50;;;;;;216551;1295;25421;-62
2023/09/25 02:21:06;;;;;;;1.30;1.20;;;22.50;62.20;;;;;;216382;1298;24394;-62
2023/09/25 02:26:09;;;;;;;1.20;0.90;;;22.50;62.30;;;;;;216480;1294;25374;-62
2023/09/25 02:31:13;;;;;;;0.90;0.90;;;22.50;62.30;;;;;;216277;1298;23993;-61
2023/09/25 02:36:18;;;;;;;1.40;1.00;;;22.40;62.30;;;;;;216495;1298;22563;-63
2023/09/25 02:41:21;;;;;;;1.70;1.10;;;22.40;62.30;;;;;;216430;1298;23849;-63
2023/09/25 02:46:23;;;;;;;1.50;1.10;;;22.40;62.40;;;;;;216119;1295;22561;-63
2023/09/25 02:51:26;;;;;;;1.20;1.10;;;22.40;62.60;;;;;;216593;1298;22567;-61
2023/09/25 02:56:29;;;;;;;1.20;1.10;;;22.50;62.30;;;;;;216459;1301;22553;-62
2023/09/25 03:01:34;;;;;;;1.30;1.20;;;22.50;62.20;;;;;;216471;1291;22630;-62
2023/09/25 03:06:37;;;;;;;1.20;1.00;;;22.40;62.20;;;;;;215955;1298;262366;-62
2023/09/25 03:11:39;;;;;;;3.50;1.20;;;22.40;62.40;;;;;;216265;1297;22689;-62
2023/09/25 03:16:42;;;;;;;1.80;1.30;;;22.40;62.40;;;;;;216588;1298;22713;-62
2023/09/25 03:21:45;;;;;;;1.30;1.20;;;22.40;62.40;;;;;;216343;1298;25527;-61
2023/09/25 03:26:52;;;;;;;1.60;1.50;;;22.40;62.40;;;;;;216415;1300;22589;-61
2023/09/25 03:31:54;;;;;;;1.10;1.00;;;22.40;62.40;;;;;;216399;1298;22850;-61
2023/09/25 03:36:58;;;;;;;1.30;1.20;;;22.40;62.50;;;;;;216511;1301;22626;-61
2023/09/25 03:42:00;;;;;;;1.30;1.20;;;22.40;62.50;;;;;;216229;1295;24292;-61
2023/09/25 03:47:04;;;;;;;1.60;1.30;;;22.40;62.50;;;;;;216190;1298;22574;-62
2023/09/25 03:52:08;;;;;;;1.20;0.90;;;22.40;62.50;;;;;;216316;1298;24426;-61
2023/09/25 03:57:11;;;;;;;2.60;1.00;;;22.40;62.50;;;;;;216227;1301;22572;-61
2023/09/25 04:02:14;;;;;;;1.10;1.10;;;22.40;62.40;;;;;;216292;1288;22556;-62
2023/09/25 04:07:17;;;;;;;0.90;0.90;;;22.40;62.40;;;;;;216258;1302;24341;-62
2023/09/25 04:12:20;;;;;;;1.10;1.00;;;22.40;62.40;;;;;;216436;1292;22590;-62
2023/09/25 04:17:24;;;;;;;1.40;1.00;;;22.40;62.50;;;;;;216385;1302;22617;-63
2023/09/25 04:22:27;;;;;;;1.30;1.20;;;22.40;62.50;;;;;;216384;1298;24328;-62
2023/09/25 04:27:30;;;;;;;4.40;1.20;;;22.40;62.60;;;;;;215983;1301;24244;-62
2023/09/25 04:32:33;;;;;;;1.60;1.40;;;22.40;62.70;;;;;;216423;1296;22559;-61
2023/09/25 04:37:37;;;;;;;5.00;1.20;;;22.40;62.60;;;;;;216410;1299;22607;-62
2023/09/25 04:42:42;;;;;;;2.20;1.10;;;22.30;62.70;;;;;;216502;1302;22582;-62
2023/09/25 04:47:53;;;;;;;0.70;0.70;;;22.30;62.70;;;;;;216360;1298;22608;-61
2023/09/25 04:52:56;;;;;;;3.30;1.30;;;22.40;63.00;;;;;;216482;1301;22798;-61
2023/09/25 04:57:59;;;;;;;1.40;1.30;;;22.30;62.60;;;;;;216506;1292;24267;-61
2023/09/25 05:03:02;;;;;;;1.10;1.10;;;22.30;62.60;;;;;;216230;1298;22555;-61
2023/09/25 05:08:05;;;;;;;0.80;0.80;;;22.40;62.60;;;;;;216533;1288;22605;-61
2023/09/25 05:13:09;;;;;;;1.60;1.50;;;22.40;62.60;;;;;;216419;1285;24289;-62
2023/09/25 05:18:12;;;;;;;1.20;1.00;;;22.30;62.70;;;;;;216148;1295;22626;-62
2023/09/25 05:23:18;;;;;;;1.20;1.10;;;22.30;63.00;;;;;;216509;1297;25422;-61
2023/09/25 05:28:22;;;;;;;1.60;1.10;;;22.40;62.70;;;;;;216224;1295;22673;-62
2023/09/25 05:33:25;;;;;;;1.00;0.80;;;22.40;62.80;;;;;;216245;1302;22644;-62
2023/09/25 05:38:28;;;;;;;2.20;1.00;;;22.40;62.40;;;;;;215979;1295;22726;-62
2023/09/25 05:43:30;;;;;;;1.30;1.20;;;22.50;62.30;;;;;;216262;1298;24253;-58
2023/09/25 05:48:33;;;;;;;1.40;1.30;;;22.50;62.30;;;;;;216216;1295;23945;-51
2023/09/25 05:53:36;;;;;;;1.60;1.00;;;22.50;62.50;;;;;;216245;1291;24089;-53
2023/09/25 05:58:39;;;;;;;1.30;1.20;;;22.50;62.60;;;;;;216219;1302;22614;-53
2023/09/25 06:03:42;;;;;;;3.20;1.60;;;22.60;64.00;;;;;;216366;1295;23754;-50
2023/09/25 06:08:45;;;;;;;3.00;1.10;;;22.50;64.10;;;;;;216079;1295;23940;-51
2023/09/25 06:13:48;;;;;;;1.80;1.30;;;22.50;64.00;;;;;;215999;1296;24055;-54
2023/09/25 06:18:51;;;;;;;1.40;1.20;;;22.60;63.70;;;;;;216392;1291;22688;-54
2023/09/25 06:23:54;;;;;;;4.70;1.40;;;22.60;63.70;;;;;;216173;1282;22589;-54
2023/09/25 06:28:58;;;;;;;3.40;1.50;;;22.50;64.50;;;;;;216212;1298;22574;-53
2023/09/25 06:34:02;;;;;;;3.80;1.70;;;22.60;63.80;;;;;;216103;1288;24250;-52
2023/09/25 06:39:09;;;;;;;3.70;1.50;;;22.60;64.00;;;;;;216126;1303;25380;-50
2023/09/25 06:44:12;;;;;;;7.30;1.50;;;22.50;64.30;;;;;;216098;1298;22695;-52
2023/09/25 06:49:16;;;;;;;9.00;1.50;;;22.80;63.90;;;;;;216120;1288;22645;-53
2023/09/25 06:54:19;;;;;;;4.50;1.80;;;22.70;63.80;;;;;;216420;1288;22871;-51
2023/09/25 06:59:23;;;;;;;4.90;1.90;;;22.90;64.00;;;;;;216432;1289;24228;-54
2023/09/25 07:04:27;;;;;;;4.60;1.70;;;23.00;64.20;;;;;;216194;1296;22769;-54
2023/09/25 07:09:30;;;;;;;5.10;2.10;;;23.00;64.00;;;;;;216552;1298;24320;-53
2023/09/25 07:14:33;;;;;;;12.70;1.90;;;22.80;64.00;;;;;;216277;1298;22741;-53
2023/09/25 07:19:35;;;;;;;11.90;2.00;;;22.90;64.00;;;;;;216496;1293;22606;-54
2023/09/25 07:24:38;;;;;;;4.40;2.10;;;23.00;64.00;;;;;;216164;1297;22513;-55
2023/09/25 07:29:45;;;;;;;8.10;1.70;;;22.90;63.50;;;;;;218481;1298;22575;-54
2023/09/25 07:34:48;;;;;;;5.80;2.00;;;22.90;63.10;;;;;;216316;1298;23970;-53
2023/09/25 07:39:51;;;;;;;2.90;1.70;;;23.00;62.70;;;;;;216157;1300;22608;-53
2023/09/25 07:44:54;;;;;;;2.10;1.50;;;23.00;63.10;;;;;;216373;1295;25546;-54
2023/09/25 07:49:57;;;;;;;2.90;2.10;;;23.00;62.60;;;;;;216243;1298;22681;-54
2023/09/25 07:55:00;;;;;;;2.90;1.80;;;23.10;62.30;;;;;;216169;1298;22643;-54
2023/09/25 08:00:34;;;;;;;3.40;1.70;;;23.10;62.20;;;;;;216020;1301;22565;-55
2023/09/25 08:05:37;;;;;;;3.40;1.50;;;23.00;62.10;;;;;;216374;1302;23478;-56
2023/09/25 08:10:44;;;;;;;2.80;1.80;;;23.20;62.30;;;;;;216242;1303;22614;-52
2023/09/25 08:15:46;;;;;;;3.20;1.60;;;23.30;62.00;;;;;;216207;1295;24311;-54
2023/09/25 08:20:49;;;;;;;1.50;1.30;;;23.30;61.80;;;;;;216190;1299;25542;-53
2023/09/25 08:25:52;;;;;;;2.30;1.40;;;23.30;61.80;;;;;;216267;1295;22562;-55
2023/09/25 08:30:54;;;;;;;2.00;1.50;;;23.30;62.00;;;;;;216162;1297;22559;-53
2023/09/25 08:35:57;;;;;;;4.10;1.50;;;23.30;61.60;;;;;;216346;1303;22555;-54
2023/09/25 08:41:01;;;;;;;2.10;1.60;;;23.20;62.10;;;;;;216006;1285;22597;-56
2023/09/25 08:46:04;;;;;;;2.30;1.70;;;23.30;62.00;;;;;;216112;1300;22559;-54
2023/09/25 08:51:07;;;;;;;1.60;1.50;;;23.20;61.80;;;;;;216164;1288;22569;-53
2023/09/25 08:56:14;;;;;;;1.20;1.10;;;23.20;61.80;;;;;;216253;1295;22550;-53
2023/09/25 09:01:18;;;;;;;4.00;2.40;;;23.30;61.80;;;;;;216447;1302;25386;-54
2023/09/25 09:06:21;;;;;;;2.30;1.70;;;23.60;62.80;;;;;;216399;1288;25275;-54
2023/09/25 09:11:24;;;;;;;5.60;1.90;;;23.70;61.10;;;;;;216462;1300;22708;-54
2023/09/25 09:16:27;;;;;;;3.00;1.80;;;23.80;61.00;;;;;;216424;1298;24320;-54
2023/09/25 09:21:30;;;;;;;1.90;1.60;;;23.80;60.80;;;;;;216125;1289;25342;-55
2023/09/25 09:26:32;;;;;;;2.80;1.80;;;23.70;61.30;;;;;;216268;1298;22690;-51
2023/09/25 09:31:35;;;;;;;4.00;1.90;;;23.70;60.90;;;;;;216241;1303;22867;-53
2023/09/25 09:36:50;;;;;;;1.60;1.50;;;23.80;60.80;;;;;;215966;1303;22684;-54
2023/09/25 09:41:55;;;;;;;2.10;1.90;;;23.80;60.90;;;;;;216456;1295;24247;-51
2023/09/25 09:47:07;;;;;;;1.50;1.30;;;24.00;60.40;;;;;;216393;1296;23825;-54
2023/09/25 09:52:10;;;;;;;3.80;1.70;;;23.90;60.60;;;;;;216360;1303;25379;-54
2023/09/25 09:57:14;;;;;;;2.70;1.70;;;23.90;60.50;;;;;;216324;1294;23957;-53
2023/09/25 10:02:17;;;;;;;1.60;1.50;;;24.00;60.40;;;;;;216505;1298;25351;-53
2023/09/25 10:07:20;;;;;;;1.80;1.60;;;23.90;60.80;;;;;;216308;1302;22561;-53
2023/09/25 10:12:49;;;;;;;2.40;1.70;;;23.90;61.00;;;;;;216323;1301;23960;-53
2023/09/25 10:17:53;;;;;;;1.90;1.40;;;24.00;60.50;;;;;;216327;1301;23969;-52
2023/09/25 10:23:23;;;;;;;2.90;1.70;;;24.00;60.50;;;;;;216158;1298;22648;-50
2023/09/25 10:28:29;;;;;;;2.20;1.80;;;24.00;60.60;;;;;;216270;1298;22575;-51
2023/09/25 10:33:35;;;;;;;2.50;1.90;;;23.90;60.50;;;;;;216156;1298;25375;-56
2023/09/25 10:38:40;;;;;;;3.10;1.90;;;23.90;60.50;;;;;;216204;1295;22562;-55
2023/09/25 10:43:42;;;;;;;3.20;2.30;;;23.90;60.10;;;;;;216205;1298;22694;-55
2023/09/25 10:48:47;;;;;;;6.40;4.10;;;23.90;60.60;;;;;;215747;1298;24140;-54
2023/09/25 10:53:50;;;;;;;7.40;3.70;;;23.90;62.40;;;;;;216175;1301;25287;-54
2023/09/25 10:58:53;;;;;;;4.00;2.80;;;23.90;64.90;;;;;;216047;1303;22560;-54
2023/09/25 11:03:57;;;;;;;7.90;2.90;;;23.90;63.00;;;;;;216519;1298;22573;-55
2023/09/25 11:09:08;;;;;;;6.20;3.00;;;23.90;63.40;;;;;;216360;1301;22607;-55
2023/09/25 11:14:11;;;;;;;5.60;2.90;;;23.80;62.50;;;;;;216295;1288;25292;-54
2023/09/25 11:19:15;;;;;;;7.70;3.40;;;23.80;62.50;;;;;;216358;1301;22559;-51
2023/09/25 11:24:19;;;;;;;4.90;3.10;;;23.80;62.90;;;;;;216409;1297;22561;-55
2023/09/25 11:29:30;;;;;;;5.00;3.30;;;23.80;62.50;;;;;;216195;1298;22559;-53
2023/09/25 11:34:38;;;;;;;4.90;2.70;;;23.70;62.90;;;;;;216243;1301;26628;-53
2023/09/25 11:39:41;;;;;;;5.90;3.20;;;23.80;62.30;;;;;;216479;1298;22577;-49
2023/09/25 11:44:44;;;;;;;4.10;2.50;;;23.80;63.00;;;;;;216384;1298;22559;-54
2023/09/25 11:49:46;;;;;;;4.70;2.80;;;23.80;62.10;;;;;;216351;1298;22567;-51
2023/09/25 11:54:49;;;;;;;5.30;2.70;;;23.80;62.40;;;;;;216455;1297;22571;-50
2023/09/25 11:59:52;;;;;;;5.20;2.60;;;23.80;62.00;;;;;;216210;1302;22556;-52
2023/09/25 12:04:55;;;;;;;6.10;2.60;;;23.90;61.80;;;;;;216113;1298;22559;-52
2023/09/25 12:10:00;;;;;;;3.80;2.40;;;23.90;61.50;;;;;;216204;1297;22598;-54
2023/09/25 12:15:03;;;;;;;4.90;2.40;;;23.90;61.80;;;;;;216146;1301;22562;-53
2023/09/25 12:20:13;;;;;;;5.50;2.90;;;23.90;61.60;;;;;;216517;1302;24641;-51
2023/09/25 12:25:16;;;;;;;4.90;2.50;;;23.90;61.70;;;;;;216261;1301;22675;-53
2023/09/25 12:30:19;;;;;;;14.00;3.40;;;23.90;62.20;;;;;;216326;1298;23948;-54
2023/09/25 12:35:23;;;;;;;11.30;3.20;;;24.00;63.50;;;;;;216389;1292;23982;-52
2023/09/25 12:40:25;;;;;;;6.60;3.00;;;24.00;63.40;;;;;;216367;1301;22574;-53
2023/09/25 12:45:28;;;;;;;8.10;2.80;;;24.10;63.80;;;;;;215971;1300;24295;-52
2023/09/25 12:50:31;;;;;;;5.30;2.60;;;24.10;63.50;;;;;;216361;1300;25352;-53
2023/09/25 12:55:36;;;;;;;9.20;3.60;;;24.00;65.40;;;;;;216303;1301;24234;-50
2023/09/25 13:00:40;;;;;;;11.60;7.40;;;24.10;64.80;;;;;;216432;1298;23216;-51
2023/09/25 13:05:43;;;;;;;11.50;5.10;;;24.10;64.40;;;;;;216271;1295;24613;-53
2023/09/25 13:10:46;;;;;;;5.50;3.90;;;24.10;64.50;;;;;;216254;1297;24229;-49
2023/09/25 13:15:49;;;;;;;7.40;3.20;;;24.20;64.30;;;;;;216560;1285;22556;-50
2023/09/25 13:20:52;;;;;;;7.50;3.40;;;24.20;63.90;;;;;;216181;1302;23196;-53
2023/09/25 13:25:55;;;;;;;8.10;3.80;;;24.00;65.90;;;;;;216292;1292;24205;-50
2023/09/25 13:30:58;;;;;;;6.00;3.60;;;24.00;67.30;;;;;;216233;1299;25120;-50
2023/09/25 13:36:00;;;;;;;3.80;3.10;;;24.00;67.30;;;;;;216388;1302;22743;-54
2023/09/25 13:41:06;;;;;;;6.50;3.00;;;24.10;66.20;;;;;;216205;1301;22750;-51
2023/09/25 13:46:09;;;;;;;5.90;2.80;;;24.10;65.80;;;;;;216436;1301;23065;-51
2023/09/25 13:51:12;;;;;;;4.70;2.90;;;24.10;65.30;;;;;;216194;1296;24257;-53
2023/09/25 13:56:17;;;;;;;3.20;2.50;;;24.00;65.40;;;;;;216154;1289;24266;-51
2023/09/25 14:01:20;;;;;;;7.30;2.90;;;24.00;65.30;;;;;;216227;1303;22616;-54
2023/09/25 14:06:24;;;;;;;11.60;3.00;;;24.10;65.10;;;;;;216015;1293;22677;-56
2023/09/25 14:11:30;;;;;;;6.10;2.60;;;24.10;64.80;;;;;;216418;1298;23556;-55
2023/09/25 14:16:36;;;;;;;4.00;2.70;;;23.80;64.40;;;;;;216308;1298;26608;-56
2023/09/25 14:21:45;;;;;;;8.70;2.70;;;23.60;64.40;;;;;;216410;1296;24278;-58
2023/09/25 14:26:49;;;;;;;4.50;2.80;;;23.40;64.40;;;;;;216311;1292;23748;-55
2023/09/25 14:31:52;;;;;;;5.40;2.70;;;23.30;64.30;;;;;;216578;1301;22578;-57
2023/09/25 14:36:55;;;;;;;5.10;3.10;;;23.30;64.60;;;;;;216239;1301;24284;-61
2023/09/25 14:41:58;;;;;;;6.00;3.30;;;23.20;64.20;;;;;;216630;1302;22605;-59
2023/09/25 14:47:01;;;;;;;4.30;3.60;;;23.20;64.10;;;;;;216315;1291;22710;-59
2023/09/25 14:52:05;;;;;;;5.40;4.50;;;23.20;64.00;;;;;;216527;1298;24295;-64
2023/09/25 14:57:08;;;;;;;4.90;4.40;;;23.20;64.00;;;;;;216227;1303;24270;-60
2023/09/25 15:02:11;;;;;;;5.20;4.60;;;23.20;63.80;;;;;;216729;1301;22687;-60
2023/09/25 15:07:13;;;;;;;5.00;4.40;;;23.30;63.50;;;;;;216779;1293;155129;-61
2023/09/25 15:12:23;;;;;;;5.70;4.20;;;23.40;64.10;;;;;;216805;1288;24289;-60
2023/09/25 15:17:31;;;;;;;9.10;4.10;;;23.30;64.00;;;;;;217339;1298;22700;-59
2023/09/25 15:22:34;;;;;;;6.80;4.10;;;23.40;64.00;;;;;;217053;1292;22563;-61
2023/09/25 15:27:39;;;;;;;4.90;4.00;;;23.50;63.60;;;;;;217296;1298;23015;-61
2023/09/25 15:32:41;;;;;;;5.40;3.80;;;23.50;63.80;;;;;;217063;1298;23278;-58
2023/09/25 15:37:45;;;;;;;6.10;3.60;;;23.60;63.50;;;;;;216879;1295;22567;-59
2023/09/25 15:42:49;;;;;;;5.20;3.70;;;23.60;63.30;;;;;;217288;1292;22563;-61
2023/09/25 15:47:55;;;;;;;6.00;4.00;;;23.60;63.50;;;;;;217179;1299;22546;-62
2023/09/25 15:53:00;;;;;;;7.60;4.60;;;23.50;63.90;;;;;;216992;1295;22641;-58
2023/09/25 15:58:03;;;;;;;7.30;4.10;;;23.40;63.90;;;;;;217218;1292;22556;-60
2023/09/25 16:03:07;;;;;;;4.50;3.60;;;23.30;64.00;;;;;;217054;1300;24756;-61
2023/09/25 16:08:10;;;;;;;4.70;4.30;;;23.20;64.10;;;;;;217087;1288;25443;-63
2023/09/25 16:13:12;;;;;;;5.10;4.40;;;23.10;64.50;;;;;;217487;1298;22701;-58
2023/09/25 16:18:16;;;;;;;8.50;4.00;;;23.10;64.10;;;;;;217282;1297;25844;-61
2023/09/25 16:23:18;;;;;;;5.20;4.10;;;23.10;64.10;;;;;;217112;1297;22579;-64
2023/09/25 16:28:22;;;;;;;5.00;4.50;;;23.20;64.00;;;;;;216886;1299;22604;-64
2023/09/25 16:33:25;;;;;;;6.10;4.30;;;23.20;64.20;;;;;;217303;1290;25458;-61
2023/09/25 16:38:28;;;;;;;9.30;4.60;;;23.30;63.70;;;;;;216914;1293;25400;-62
2023/09/25 16:43:32;;;;;;;4.50;4.10;;;23.30;63.70;;;;;;216992;1292;26022;-63
2023/09/25 16:48:36;;;;;;;7.10;4.40;;;23.30;63.60;;;;;;217043;1293;23015;-62
2023/09/25 16:53:41;;;;;;;7.40;4.20;;;23.30;63.90;;;;;;217133;1296;22556;-60
2023/09/25 16:58:45;;;;;;;4.90;4.00;;;23.30;64.70;;;;;;217254;1293;23950;-59
2023/09/25 17:03:49;;;;;;;10.90;3.60;;;23.40;64.30;;;;;;217053;1295;22553;-61
2023/09/25 17:08:55;;;;;;;7.40;3.60;;;23.40;64.20;;;;;;216868;1295;24273;-61
2023/09/25 17:14:00;;;;;;;10.60;3.80;;;23.60;64.00;;;;;;216954;1292;22594;-61
2023/09/25 17:19:04;;;;;;;10.50;4.20;;;23.50;64.20;;;;;;216949;1288;22520;-61
2023/09/25 17:24:09;;;;;;;7.40;3.90;;;23.60;64.50;;;;;;217165;1285;25326;-61
2023/09/25 17:29:12;;;;;;;5.60;4.00;;;23.60;64.50;;;;;;217242;1285;22549;-61
2023/09/25 17:34:16;;;;;;;4.40;3.80;;;23.60;64.60;;;;;;217171;1292;22636;-60
2023/09/25 17:39:20;;;;;;;7.30;6.60;;;23.70;64.50;;;;;;217256;1296;22688;-61
2023/09/25 17:44:24;;;;;;;28.80;23.40;;;23.70;64.30;;;;;;217119;1295;24193;-60
2023/09/25 17:49:28;;;;;;;32.80;24.70;;;23.80;64.50;;;;;;217194;1292;23491;-60
2023/09/25 17:54:35;;;;;;;69.70;47.80;;;23.80;64.30;;;;;;217014;1285;24257;-60
2023/09/25 17:59:38;;;;;;;52.30;39.00;;;23.80;64.80;;;;;;216834;1291;23953;-58
2023/09/25 18:04:43;;;;;;;48.60;34.60;;;23.90;64.20;;;;;;217036;1295;22604;-59
2023/09/25 18:09:48;;;;;;;46.70;33.30;;;23.90;64.50;;;;;;217406;1288;24435;-59
2023/09/25 18:14:54;;;;;;;42.10;31.10;;;23.90;64.00;;;;;;217217;1292;23057;-58
2023/09/25 18:19:59;;;;;;;39.60;28.90;;;24.00;64.00;;;;;;217476;1295;22582;-57
2023/09/25 18:25:02;;;;;;;36.00;28.70;;;24.00;64.30;;;;;;217448;1285;23565;-59
2023/09/25 18:30:10;;;;;;;42.70;26.60;;;24.00;64.20;;;;;;217145;1299;22572;-59
2023/09/25 18:35:14;;;;;;;41.00;26.50;;;24.00;64.20;;;;;;216959;1292;22703;-59
2023/09/25 18:40:19;;;;;;;34.80;25.80;;;24.10;64.20;;;;;;216777;1292;22555;-58
2023/09/25 18:45:26;;;;;;;39.00;25.10;;;24.20;64.00;;;;;;217262;1292;22579;-56
2023/09/25 18:50:41;;;;;;;38.70;24.90;;;24.10;64.20;;;;;;217447;1291;22665;-59
2023/09/25 18:55:47;;;;;;;31.40;22.90;;;24.20;64.60;;;;;;216905;1294;24329;-60
2023/09/25 19:00:54;;;;;;;33.60;21.50;;;24.10;64.60;;;;;;217026;1293;22563;-59
2023/09/25 19:05:58;;;;;;;29.90;21.30;;;24.00;64.90;;;;;;217144;1294;25348;-59
2023/09/25 19:11:03;;;;;;;30.50;22.30;;;24.00;64.90;;;;;;217131;1286;25457;-58
2023/09/25 19:16:09;;;;;;;31.50;20.80;;;24.00;64.90;;;;;;216904;1292;23725;-60
2023/09/25 19:21:12;;;;;;;27.00;20.40;;;24.20;65.60;;;;;;217221;1295;23979;-59
2023/09/25 19:26:16;;;;;;;27.40;19.20;;;24.20;65.00;;;;;;217959;1295;23106;-59
2023/09/25 19:31:22;;;;;;;23.80;19.30;;;24.30;64.60;;;;;;219593;1294;22701;-59
2023/09/25 19:36:43;;;;;;;27.90;17.90;;;24.30;64.70;;;;;;217128;1293;22691;-59
2023/09/25 19:41:47;;;;;;;23.20;18.50;;;24.30;64.60;;;;;;216942;1293;22638;-59
2023/09/25 19:46:50;;;;;;;28.00;18.90;;;24.10;65.40;;;;;;216692;1298;25417;-58
2023/09/25 19:51:54;;;;;;;27.80;18.80;;;24.10;65.20;;;;;;216849;1299;24279;-57
2023/09/25 19:57:07;;;;;;;27.90;17.80;;;24.10;64.90;;;;;;216934;1299;22602;-59
2023/09/25 20:02:14;;;;;;;25.00;17.10;;;24.10;65.10;;;;;;217139;1298;24512;-60
2023/09/25 20:07:17;;;;;;;21.90;16.40;;;24.10;64.90;;;;;;217096;1297;24459;-59
2023/09/25 20:12:22;;;;;;;25.50;17.90;;;24.10;65.10;;;;;;217197;1297;24227;-60
2023/09/25 20:17:25;;;;;;;23.50;16.50;;;24.20;65.30;;;;;;216964;1292;23619;-60
2023/09/25 20:22:29;;;;;;;26.60;17.00;;;24.20;65.40;;;;;;217136;1292;24269;-57
2023/09/25 20:27:32;;;;;;;21.70;16.90;;;24.20;66.20;;;;;;216986;1299;22821;-59
2023/09/25 20:32:35;;;;;;;21.90;16.10;;;24.20;66.50;;;;;;216926;1299;22670;-59
2023/09/25 20:37:38;;;;;;;20.20;15.90;;;24.30;66.90;;;;;;217174;1295;24235;-59
2023/09/25 20:42:41;;;;;;;27.30;16.80;;;24.30;66.80;;;;;;217023;1298;22553;-59
2023/09/25 20:47:45;;;;;;;21.90;16.40;;;24.30;67.20;;;;;;216847;1295;22748;-58
2023/09/25 20:52:49;;;;;;;22.00;16.00;;;24.30;66.80;;;;;;217223;1297;22637;-62
2023/09/25 20:57:55;;;;;;;21.70;16.00;;;24.30;66.80;;;;;;216907;1299;25457;-62
2023/09/25 21:02:58;;;;;;;22.20;16.90;;;24.40;66.60;;;;;;217272;1292;22611;-62
2023/09/25 21:08:03;;;;;;;23.70;17.20;;;24.30;67.00;;;;;;217453;1291;24346;-62
2023/09/25 21:13:05;;;;;;;19.20;16.70;;;24.50;66.70;;;;;;217186;1297;22598;-63
2023/09/25 21:18:09;;;;;;;19.40;16.20;;;24.40;66.30;;;;;;216823;1296;22564;-62
2023/09/25 21:23:12;;;;;;;19.00;15.70;;;24.50;66.10;;;;;;216854;1292;24420;-62
2023/09/25 21:28:15;;;;;;;17.60;14.40;;;24.40;66.00;;;;;;216871;1295;24439;-61
2023/09/25 21:33:18;;;;;;;17.50;14.50;;;24.40;65.90;;;;;;217103;1291;25695;-62
2023/09/25 21:38:20;;;;;;;25.70;14.60;;;24.30;65.90;;;;;;216953;1278;22661;-61
2023/09/25 21:43:23;;;;;;;16.00;13.60;;;24.40;66.00;;;;;;217895;1295;22582;-61
2023/09/25 21:48:26;;;;;;;17.40;13.40;;;24.40;65.80;;;;;;217950;1291;22563;-61
2023/09/25 21:53:29;;;;;;;15.00;12.90;;;24.30;65.60;;;;;;217220;1292;22573;-62
2023/09/25 21:58:32;;;;;;;16.90;13.00;;;24.30;65.70;;;;;;217172;1294;22562;-61
2023/09/25 22:03:35;;;;;;;19.50;12.70;;;24.30;65.60;;;;;;216859;1291;23635;-60
2023/09/25 22:08:37;;;;;;;14.80;13.20;;;24.30;65.70;;;;;;216936;1296;22786;-59
2023/09/25 22:13:40;;;;;;;18.30;13.00;;;24.30;65.90;;;;;;217431;1292;24403;-62
2023/09/25 22:18:43;;;;;;;16.30;12.90;;;24.30;65.70;;;;;;217018;1289;22512;-62
2023/09/25 22:23:46;;;;;;;15.70;12.80;;;24.30;65.90;;;;;;216959;1291;24259;-62
2023/09/25 22:28:49;;;;;;;14.20;12.00;;;24.20;65.50;;;;;;217232;1297;22569;-62
2023/09/25 22:33:52;;;;;;;14.30;12.80;;;24.30;65.60;;;;;;217315;1294;22640;-61
2023/09/25 22:38:55;;;;;;;15.80;11.60;;;24.20;65.70;;;;;;217069;1298;22548;-61
2023/09/25 22:43:58;;;;;;;13.10;11.40;;;24.10;66.00;;;;;;217177;1291;24254;-61
2023/09/25 22:49:01;;;;;;;12.90;11.50;;;24.10;66.10;;;;;;217050;1294;22801;-62
2023/09/25 22:54:04;;;;;;;19.20;12.00;;;24.00;66.40;;;;;;217111;1292;23967;-61
2023/09/25 22:59:07;;;;;;;11.60;10.40;;;24.00;66.70;;;;;;217591;1291;22566;-63
2023/09/25 23:04:12;;;;;;;11.50;10.10;;;24.10;66.30;;;;;;217690;1291;24292;-63
2023/09/25 23:09:15;;;;;;;11.30;10.10;;;24.10;66.40;;;;;;217374;1291;22615;-64
2023/09/25 23:14:19;;;;;;;15.80;11.70;;;24.10;66.70;;;;;;217344;1294;22622;-65
2023/09/25 23:19:22;;;;;;;12.40;10.50;;;24.00;66.60;;;;;;217414;1298;24806;-64
2023/09/25 23:24:25;;;;;;;11.30;10.10;;;23.90;66.60;;;;;;217240;1291;22568;-66
2023/09/25 23:29:28;;;;;;;11.50;10.40;;;23.90;66.60;;;;;;217317;1298;25397;-64
2023/09/25 23:34:31;;;;;;;15.20;11.10;;;23.90;66.50;;;;;;217446;1295;22593;-65
2023/09/25 23:39:34;;;;;;;14.80;9.90;;;23.90;66.20;;;;;;217186;1294;22552;-64
2023/09/25 23:44:37;;;;;;;12.40;9.90;;;23.90;66.40;;;;;;217058;1298;22556;-65
2023/09/25 23:49:40;;;;;;;12.70;10.50;;;23.90;66.20;;;;;;216980;1298;22541;-62
2023/09/25 23:54:43;;;;;;;11.30;10.20;;;23.90;66.20;;;;;;217208;1298;22549;-65
2023/09/25 23:59:46;;;;;;;10.60;9.60;;;23.90;66.30;;;;;;217079;1294;22649;-64
